sensor_id;sensor_type;location;lat;lon;timestamp;pressure;altitude;pressure_sealevel;temperature;humidity
78407;BME280;67692;51.074;-1.790;2023-03-11T00:00:42;100426.22;;;2.37;73.87
78407;BME280;67692;51.074;-1.790;2023-03-11T00:03:11;100417.84;;;2.34;73.80
78407;BME280;67692;51.074;-1.790;2023-03-11T00:05:40;100393.78;;;2.18;73.87
78407;BME280;67692;51.074;-1.790;2023-03-11T00:08:10;100370.38;;;2.06;74.06
78407;BME280;67692;51.074;-1.790;2023-03-11T00:10:39;100363.38;;;2.12;74.47
78407;BME280;67692;51.074;-1.790;2023-03-11T00:13:08;100365.84;;;2.13;74.39
78407;BME280;67692;51.074;-1.790;2023-03-11T00:15:37;100384.03;;;2.05;74.31
78407;BME280;67692;51.074;-1.790;2023-03-11T00:18:05;100395.16;;;2.04;74.42
78407;BME280;67692;51.074;-1.790;2023-03-11T00:20:33;100398.59;;;2.03;74.73
78407;BME280;67692;51.074;-1.790;2023-03-11T00:23:00;100382.69;;;2.19;74.75
78407;BME280;67692;51.074;-1.790;2023-03-11T00:25:29;100385.75;;;2.27;73.95
78407;BME280;67692;51.074;-1.790;2023-03-11T00:27:56;100389.13;;;2.27;74.28
78407;BME280;67692;51.074;-1.790;2023-03-11T00:30:23;100395.91;;;2.28;74.14
78407;BME280;67692;51.074;-1.790;2023-03-11T00:32:53;100392.16;;;2.15;74.11
78407;BME280;67692;51.074;-1.790;2023-03-11T00:35:23;100406.00;;;2.09;74.56
78407;BME280;67692;51.074;-1.790;2023-03-11T00:37:52;100405.88;;;2.13;74.62
78407;BME280;67692;51.074;-1.790;2023-03-11T00:40:19;100412.22;;;2.02;74.36
78407;BME280;67692;51.074;-1.790;2023-03-11T00:42:46;100404.63;;;2.01;74.50
78407;BME280;67692;51.074;-1.790;2023-03-11T00:45:13;100385.59;;;2.09;74.55
78407;BME280;67692;51.074;-1.790;2023-03-11T00:47:40;100384.75;;;2.09;73.95
78407;BME280;67692;51.074;-1.790;2023-03-11T00:50:10;100381.97;;;1.93;73.84
78407;BME280;67692;51.074;-1.790;2023-03-11T00:52:39;100376.56;;;1.79;74.63
78407;BME280;67692;51.074;-1.790;2023-03-11T00:55:06;100364.88;;;1.72;74.55
78407;BME280;67692;51.074;-1.790;2023-03-11T00:57:32;100360.69;;;1.71;74.94
78407;BME280;67692;51.074;-1.790;2023-03-11T00:59:59;100372.09;;;1.84;74.88
78407;BME280;67692;51.074;-1.790;2023-03-11T01:02:26;100379.75;;;1.84;74.99
78407;BME280;67692;51.074;-1.790;2023-03-11T01:04:52;100394.13;;;1.87;74.67
78407;BME280;67692;51.074;-1.790;2023-03-11T01:07:20;100395.78;;;1.88;74.63
78407;BME280;67692;51.074;-1.790;2023-03-11T01:09:47;100389.97;;;1.84;74.90
78407;BME280;67692;51.074;-1.790;2023-03-11T01:12:14;100381.25;;;1.90;74.23
78407;BME280;67692;51.074;-1.790;2023-03-11T01:14:40;100379.88;;;1.81;74.31
78407;BME280;67692;51.074;-1.790;2023-03-11T01:17:07;100373.94;;;1.81;74.51
78407;BME280;67692;51.074;-1.790;2023-03-11T01:19:33;100369.06;;;1.74;74.89
78407;BME280;67692;51.074;-1.790;2023-03-11T01:22:00;100381.41;;;1.85;74.50
78407;BME280;67692;51.074;-1.790;2023-03-11T01:24:28;100385.09;;;1.78;74.74
78407;BME280;67692;51.074;-1.790;2023-03-11T01:26:54;100390.06;;;1.81;74.63
78407;BME280;67692;51.074;-1.790;2023-03-11T01:29:21;100398.38;;;1.86;74.58
78407;BME280;67692;51.074;-1.790;2023-03-11T01:31:47;100402.34;;;1.71;74.69
78407;BME280;67692;51.074;-1.790;2023-03-11T01:34:14;100411.38;;;1.80;74.86
78407;BME280;67692;51.074;-1.790;2023-03-11T01:36:40;100402.53;;;1.67;75.01
78407;BME280;67692;51.074;-1.790;2023-03-11T01:39:07;100402.84;;;1.81;74.40
78407;BME280;67692;51.074;-1.790;2023-03-11T01:41:35;100387.72;;;1.76;74.02
78407;BME280;67692;51.074;-1.790;2023-03-11T01:44:01;100388.03;;;1.67;74.39
78407;BME280;67692;51.074;-1.790;2023-03-11T01:46:32;100380.84;;;1.55;74.76
78407;BME280;67692;51.074;-1.790;2023-03-11T01:49:03;100376.88;;;1.70;74.76
78407;BME280;67692;51.074;-1.790;2023-03-11T01:51:32;100372.84;;;1.64;74.83
78407;BME280;67692;51.074;-1.790;2023-03-11T01:54:01;100372.59;;;1.70;74.70
78407;BME280;67692;51.074;-1.790;2023-03-11T01:56:29;100386.38;;;1.66;75.08
78407;BME280;67692;51.074;-1.790;2023-03-11T01:58:58;100376.41;;;1.60;75.26
78407;BME280;67692;51.074;-1.790;2023-03-11T02:01:25;100373.69;;;1.65;74.78
78407;BME280;67692;51.074;-1.790;2023-03-11T02:03:52;100360.03;;;1.66;74.48
78407;BME280;67692;51.074;-1.790;2023-03-11T02:06:21;100350.47;;;1.71;74.77
78407;BME280;67692;51.074;-1.790;2023-03-11T02:08:49;100339.16;;;1.78;74.92
78407;BME280;67692;51.074;-1.790;2023-03-11T02:11:18;100345.59;;;1.87;74.84
78407;BME280;67692;51.074;-1.790;2023-03-11T02:13:46;100355.72;;;1.90;74.95
78407;BME280;67692;51.074;-1.790;2023-03-11T02:16:15;100357.06;;;1.98;74.65
78407;BME280;67692;51.074;-1.790;2023-03-11T02:18:42;100347.00;;;1.95;74.74
78407;BME280;67692;51.074;-1.790;2023-03-11T02:21:17;100343.53;;;1.96;73.91
78407;BME280;67692;51.074;-1.790;2023-03-11T02:23:54;100346.56;;;1.84;74.27
78407;BME280;67692;51.074;-1.790;2023-03-11T02:26:26;100338.91;;;1.84;73.98
78407;BME280;67692;51.074;-1.790;2023-03-11T02:28:55;100329.59;;;1.83;73.33
78407;BME280;67692;51.074;-1.790;2023-03-11T02:31:23;100324.66;;;1.78;73.75
78407;BME280;67692;51.074;-1.790;2023-03-11T02:33:52;100315.94;;;1.84;74.52
78407;BME280;67692;51.074;-1.790;2023-03-11T02:36:30;100303.78;;;1.69;74.74
78407;BME280;67692;51.074;-1.790;2023-03-11T02:38:57;100300.09;;;1.76;74.37
78407;BME280;67692;51.074;-1.790;2023-03-11T02:41:23;100303.41;;;1.78;74.73
78407;BME280;67692;51.074;-1.790;2023-03-11T02:43:50;100308.59;;;1.76;74.57
78407;BME280;67692;51.074;-1.790;2023-03-11T02:46:18;100301.03;;;1.73;74.82
78407;BME280;67692;51.074;-1.790;2023-03-11T02:48:46;100304.53;;;1.71;74.59
78407;BME280;67692;51.074;-1.790;2023-03-11T02:51:13;100305.44;;;1.70;74.77
78407;BME280;67692;51.074;-1.790;2023-03-11T02:53:44;100308.16;;;1.65;74.39
78407;BME280;67692;51.074;-1.790;2023-03-11T02:56:11;100308.75;;;1.72;75.12
78407;BME280;67692;51.074;-1.790;2023-03-11T02:58:37;100311.31;;;1.72;74.73
78407;BME280;67692;51.074;-1.790;2023-03-11T03:01:04;100302.03;;;1.69;74.26
78407;BME280;67692;51.074;-1.790;2023-03-11T03:03:32;100307.09;;;1.71;74.75
78407;BME280;67692;51.074;-1.790;2023-03-11T03:05:59;100297.72;;;1.71;74.46
78407;BME280;67692;51.074;-1.790;2023-03-11T03:08:25;100296.72;;;1.75;75.19
78407;BME280;67692;51.074;-1.790;2023-03-11T03:10:52;100290.94;;;1.70;75.29
78407;BME280;67692;51.074;-1.790;2023-03-11T03:13:19;100295.22;;;1.70;75.40
78407;BME280;67692;51.074;-1.790;2023-03-11T03:15:45;100303.56;;;1.75;74.29
78407;BME280;67692;51.074;-1.790;2023-03-11T03:18:12;100295.63;;;1.81;74.47
78407;BME280;67692;51.074;-1.790;2023-03-11T03:20:40;100290.72;;;1.76;74.27
78407;BME280;67692;51.074;-1.790;2023-03-11T03:23:07;100283.00;;;1.78;74.34
78407;BME280;67692;51.074;-1.790;2023-03-11T03:25:33;100294.22;;;1.74;74.26
78407;BME280;67692;51.074;-1.790;2023-03-11T03:28:00;100287.63;;;1.90;73.88
78407;BME280;67692;51.074;-1.790;2023-03-11T03:30:26;100286.19;;;1.83;74.12
78407;BME280;67692;51.074;-1.790;2023-03-11T03:32:53;100284.53;;;1.82;73.92
78407;BME280;67692;51.074;-1.790;2023-03-11T03:35:20;100287.97;;;1.81;73.89
78407;BME280;67692;51.074;-1.790;2023-03-11T03:37:48;100278.59;;;1.82;73.28
78407;BME280;67692;51.074;-1.790;2023-03-11T03:40:15;100280.19;;;1.84;73.97
78407;BME280;67692;51.074;-1.790;2023-03-11T03:42:41;100294.75;;;1.82;73.67
78407;BME280;67692;51.074;-1.790;2023-03-11T03:45:09;100296.78;;;1.74;74.33
78407;BME280;67692;51.074;-1.790;2023-03-11T03:47:36;100296.78;;;1.74;74.44
78407;BME280;67692;51.074;-1.790;2023-03-11T03:50:03;100289.91;;;1.76;74.38
78407;BME280;67692;51.074;-1.790;2023-03-11T03:52:30;100264.47;;;1.73;73.69
78407;BME280;67692;51.074;-1.790;2023-03-11T03:54:58;100272.03;;;1.76;73.34
78407;BME280;67692;51.074;-1.790;2023-03-11T03:57:25;100275.16;;;1.83;73.86
78407;BME280;67692;51.074;-1.790;2023-03-11T03:59:51;100275.63;;;1.70;73.38
78407;BME280;67692;51.074;-1.790;2023-03-11T04:02:18;100266.38;;;1.68;73.94
78407;BME280;67692;51.074;-1.790;2023-03-11T04:04:44;100262.28;;;1.64;74.13
78407;BME280;67692;51.074;-1.790;2023-03-11T04:07:11;100275.88;;;1.64;74.01
78407;BME280;67692;51.074;-1.790;2023-03-11T04:09:38;100287.75;;;1.65;74.26
78407;BME280;67692;51.074;-1.790;2023-03-11T04:12:07;100294.03;;;1.78;74.46
78407;BME280;67692;51.074;-1.790;2023-03-11T04:14:37;100303.56;;;1.75;73.62
78407;BME280;67692;51.074;-1.790;2023-03-11T04:17:03;100301.91;;;1.72;74.51
78407;BME280;67692;51.074;-1.790;2023-03-11T04:19:31;100307.63;;;1.79;74.27
78407;BME280;67692;51.074;-1.790;2023-03-11T04:21:58;100319.50;;;1.80;74.45
78407;BME280;67692;51.074;-1.790;2023-03-11T04:24:24;100319.91;;;1.91;74.26
78407;BME280;67692;51.074;-1.790;2023-03-11T04:26:51;100326.06;;;1.86;74.33
78407;BME280;67692;51.074;-1.790;2023-03-11T04:29:19;100330.91;;;1.93;74.44
78407;BME280;67692;51.074;-1.790;2023-03-11T04:31:45;100324.06;;;1.94;73.55
78407;BME280;67692;51.074;-1.790;2023-03-11T04:34:12;100326.38;;;2.00;74.00
78407;BME280;67692;51.074;-1.790;2023-03-11T04:36:39;100328.22;;;1.96;73.79
78407;BME280;67692;51.074;-1.790;2023-03-11T04:39:06;100332.44;;;1.97;73.33
78407;BME280;67692;51.074;-1.790;2023-03-11T04:41:32;100336.59;;;2.00;72.82
78407;BME280;67692;51.074;-1.790;2023-03-11T04:43:59;100331.19;;;2.07;72.92
78407;BME280;67692;51.074;-1.790;2023-03-11T04:46:27;100344.66;;;2.11;72.47
78407;BME280;67692;51.074;-1.790;2023-03-11T04:48:53;100340.31;;;2.13;72.74
78407;BME280;67692;51.074;-1.790;2023-03-11T04:51:20;100332.72;;;2.12;73.11
78407;BME280;67692;51.074;-1.790;2023-03-11T04:53:46;100331.13;;;2.09;72.85
78407;BME280;67692;51.074;-1.790;2023-03-11T04:56:13;100333.31;;;1.96;72.85
78407;BME280;67692;51.074;-1.790;2023-03-11T04:58:39;100339.19;;;1.98;73.00
78407;BME280;67692;51.074;-1.790;2023-03-11T05:01:06;100314.09;;;2.09;72.40
78407;BME280;67692;51.074;-1.790;2023-03-11T05:03:34;100308.56;;;2.20;71.50
78407;BME280;67692;51.074;-1.790;2023-03-11T05:06:01;100306.06;;;2.19;72.16
78407;BME280;67692;51.074;-1.790;2023-03-11T05:08:27;100307.00;;;2.16;73.31
78407;BME280;67692;51.074;-1.790;2023-03-11T05:10:54;100288.19;;;2.19;73.66
78407;BME280;67692;51.074;-1.790;2023-03-11T05:13:21;100284.72;;;2.20;72.92
78407;BME280;67692;51.074;-1.790;2023-03-11T05:15:47;100291.50;;;2.21;73.04
78407;BME280;67692;51.074;-1.790;2023-03-11T05:18:14;100289.06;;;2.18;72.31
78407;BME280;67692;51.074;-1.790;2023-03-11T05:20:42;100299.94;;;2.23;73.00
78407;BME280;67692;51.074;-1.790;2023-03-11T05:23:08;100310.13;;;2.23;72.30
78407;BME280;67692;51.074;-1.790;2023-03-11T05:25:35;100323.41;;;2.31;72.34
78407;BME280;67692;51.074;-1.790;2023-03-11T05:28:02;100322.78;;;2.26;71.72
78407;BME280;67692;51.074;-1.790;2023-03-11T05:30:28;100327.88;;;2.26;72.08
78407;BME280;67692;51.074;-1.790;2023-03-11T05:32:55;100325.47;;;2.23;71.38
78407;BME280;67692;51.074;-1.790;2023-03-11T05:35:21;100334.59;;;2.28;72.09
78407;BME280;67692;51.074;-1.790;2023-03-11T05:37:49;100329.13;;;2.37;72.09
78407;BME280;67692;51.074;-1.790;2023-03-11T05:40:18;100338.31;;;2.42;71.74
78407;BME280;67692;51.074;-1.790;2023-03-11T05:42:44;100338.16;;;2.46;71.26
78407;BME280;67692;51.074;-1.790;2023-03-11T05:45:11;100349.69;;;2.55;71.45
78407;BME280;67692;51.074;-1.790;2023-03-11T05:47:37;100348.09;;;2.52;71.32
78407;BME280;67692;51.074;-1.790;2023-03-11T05:50:07;100350.72;;;2.51;71.38
78407;BME280;67692;51.074;-1.790;2023-03-11T05:52:34;100347.84;;;2.58;71.11
78407;BME280;67692;51.074;-1.790;2023-03-11T05:55:02;100350.22;;;2.63;71.29
78407;BME280;67692;51.074;-1.790;2023-03-11T05:57:29;100346.63;;;2.67;70.41
78407;BME280;67692;51.074;-1.790;2023-03-11T05:59:56;100350.84;;;2.68;68.38
78407;BME280;67692;51.074;-1.790;2023-03-11T06:02:23;100362.66;;;2.71;69.87
78407;BME280;67692;51.074;-1.790;2023-03-11T06:04:49;100370.28;;;2.72;70.56
78407;BME280;67692;51.074;-1.790;2023-03-11T06:07:16;100363.50;;;2.71;71.33
78407;BME280;67692;51.074;-1.790;2023-03-11T06:09:42;100360.88;;;2.73;70.55
78407;BME280;67692;51.074;-1.790;2023-03-11T06:12:10;100359.06;;;2.75;70.66
78407;BME280;67692;51.074;-1.790;2023-03-11T06:14:37;100352.00;;;2.81;70.46
78407;BME280;67692;51.074;-1.790;2023-03-11T06:17:03;100341.69;;;2.83;69.95
78407;BME280;67692;51.074;-1.790;2023-03-11T06:19:30;100346.25;;;2.76;70.64
78407;BME280;67692;51.074;-1.790;2023-03-11T06:21:57;100366.56;;;2.79;70.74
78407;BME280;67692;51.074;-1.790;2023-03-11T06:24:23;100374.41;;;2.75;72.10
78407;BME280;67692;51.074;-1.790;2023-03-11T06:26:51;100375.16;;;2.78;71.86
78407;BME280;67692;51.074;-1.790;2023-03-11T06:29:18;100369.69;;;2.86;70.90
78407;BME280;67692;51.074;-1.790;2023-03-11T06:31:46;100368.94;;;2.84;69.86
78407;BME280;67692;51.074;-1.790;2023-03-11T06:34:12;100368.78;;;2.87;70.65
78407;BME280;67692;51.074;-1.790;2023-03-11T06:36:39;100359.41;;;2.87;69.65
78407;BME280;67692;51.074;-1.790;2023-03-11T06:39:06;100351.78;;;2.86;70.89
78407;BME280;67692;51.074;-1.790;2023-03-11T06:41:33;100353.34;;;2.90;70.60
78407;BME280;67692;51.074;-1.790;2023-03-11T06:44:00;100361.72;;;2.93;69.90
78407;BME280;67692;51.074;-1.790;2023-03-11T06:46:28;100357.06;;;3.02;69.64
78407;BME280;67692;51.074;-1.790;2023-03-11T06:48:56;100359.72;;;3.00;69.95
78407;BME280;67692;51.074;-1.790;2023-03-11T06:51:23;100370.22;;;2.94;71.03
78407;BME280;67692;51.074;-1.790;2023-03-11T06:53:51;100373.38;;;2.99;70.54
78407;BME280;67692;51.074;-1.790;2023-03-11T06:56:19;100383.56;;;3.01;70.73
78407;BME280;67692;51.074;-1.790;2023-03-11T06:58:45;100392.19;;;2.98;71.80
78407;BME280;67692;51.074;-1.790;2023-03-11T07:01:14;100410.63;;;3.06;71.77
78407;BME280;67692;51.074;-1.790;2023-03-11T07:03:42;100405.50;;;3.06;72.08
78407;BME280;67692;51.074;-1.790;2023-03-11T07:06:11;100395.28;;;3.06;70.91
78407;BME280;67692;51.074;-1.790;2023-03-11T07:08:38;100402.09;;;3.06;71.54
78407;BME280;67692;51.074;-1.790;2023-03-11T07:11:06;100403.00;;;3.05;71.85
78407;BME280;67692;51.074;-1.790;2023-03-11T07:13:34;100404.47;;;3.10;71.58
78407;BME280;67692;51.074;-1.790;2023-03-11T07:16:03;100396.84;;;3.09;71.37
78407;BME280;67692;51.074;-1.790;2023-03-11T07:18:30;100390.84;;;3.10;70.76
78407;BME280;67692;51.074;-1.790;2023-03-11T07:21:00;100385.03;;;3.06;70.42
78407;BME280;67692;51.074;-1.790;2023-03-11T07:23:26;100388.34;;;3.08;71.29
78407;BME280;67692;51.074;-1.790;2023-03-11T07:25:53;100399.97;;;3.15;69.95
78407;BME280;67692;51.074;-1.790;2023-03-11T07:28:20;100404.84;;;3.21;70.07
78407;BME280;67692;51.074;-1.790;2023-03-11T07:30:47;100409.13;;;3.21;71.70
78407;BME280;67692;51.074;-1.790;2023-03-11T07:33:14;100402.28;;;3.21;70.13
78407;BME280;67692;51.074;-1.790;2023-03-11T07:35:41;100416.03;;;3.19;70.02
78407;BME280;67692;51.074;-1.790;2023-03-11T07:38:09;100411.75;;;3.19;69.02
78407;BME280;67692;51.074;-1.790;2023-03-11T07:40:36;100411.63;;;3.22;69.08
78407;BME280;67692;51.074;-1.790;2023-03-11T07:43:03;100417.34;;;3.27;70.30
78407;BME280;67692;51.074;-1.790;2023-03-11T07:45:30;100417.97;;;3.33;69.37
78407;BME280;67692;51.074;-1.790;2023-03-11T07:47:56;100403.19;;;3.39;67.66
78407;BME280;67692;51.074;-1.790;2023-03-11T07:50:23;100398.38;;;3.52;67.15
78407;BME280;67692;51.074;-1.790;2023-03-11T07:52:49;100387.03;;;3.39;68.02
78407;BME280;67692;51.074;-1.790;2023-03-11T07:55:18;100387.78;;;3.41;67.29
78407;BME280;67692;51.074;-1.790;2023-03-11T07:57:46;100382.03;;;3.36;67.06
78407;BME280;67692;51.074;-1.790;2023-03-11T08:00:15;100388.75;;;3.38;66.27
78407;BME280;67692;51.074;-1.790;2023-03-11T08:02:41;100397.88;;;3.44;66.50
78407;BME280;67692;51.074;-1.790;2023-03-11T08:05:09;100395.44;;;3.41;65.66
78407;BME280;67692;51.074;-1.790;2023-03-11T08:07:36;100401.25;;;3.44;65.19
78407;BME280;67692;51.074;-1.790;2023-03-11T08:10:02;100400.78;;;3.36;65.72
78407;BME280;67692;51.074;-1.790;2023-03-11T08:12:31;100403.72;;;3.47;66.19
78407;BME280;67692;51.074;-1.790;2023-03-11T08:14:57;100405.09;;;3.54;66.06
78407;BME280;67692;51.074;-1.790;2023-03-11T08:17:24;100413.53;;;3.56;66.92
78407;BME280;67692;51.074;-1.790;2023-03-11T08:19:50;100406.66;;;3.57;66.18
78407;BME280;67692;51.074;-1.790;2023-03-11T08:22:17;100408.97;;;3.63;67.68
78407;BME280;67692;51.074;-1.790;2023-03-11T08:24:44;100412.75;;;3.73;69.29
78407;BME280;67692;51.074;-1.790;2023-03-11T08:27:10;100420.78;;;3.84;68.59
78407;BME280;67692;51.074;-1.790;2023-03-11T08:29:38;100410.84;;;3.78;67.04
78407;BME280;67692;51.074;-1.790;2023-03-11T08:32:05;100400.72;;;3.75;67.21
78407;BME280;67692;51.074;-1.790;2023-03-11T08:34:32;100401.75;;;3.90;67.12
78407;BME280;67692;51.074;-1.790;2023-03-11T08:36:59;100409.16;;;3.96;67.21
78407;BME280;67692;51.074;-1.790;2023-03-11T08:39:26;100408.59;;;3.89;66.44
78407;BME280;67692;51.074;-1.790;2023-03-11T08:41:53;100412.69;;;3.94;67.29
78407;BME280;67692;51.074;-1.790;2023-03-11T08:44:19;100411.84;;;3.74;67.55
78407;BME280;67692;51.074;-1.790;2023-03-11T08:46:47;100409.22;;;3.76;67.08
78407;BME280;67692;51.074;-1.790;2023-03-11T08:49:14;100410.75;;;3.61;67.00
78407;BME280;67692;51.074;-1.790;2023-03-11T08:51:41;100415.41;;;3.72;67.34
78407;BME280;67692;51.074;-1.790;2023-03-11T08:54:07;100423.28;;;3.86;67.77
78407;BME280;67692;51.074;-1.790;2023-03-11T08:56:34;100422.31;;;4.07;68.06
78407;BME280;67692;51.074;-1.790;2023-03-11T08:59:01;100429.63;;;4.15;67.23
78407;BME280;67692;51.074;-1.790;2023-03-11T09:01:28;100430.13;;;4.23;67.53
78407;BME280;67692;51.074;-1.790;2023-03-11T09:03:56;100420.78;;;4.22;66.77
78407;BME280;67692;51.074;-1.790;2023-03-11T09:06:22;100423.19;;;4.25;66.56
78407;BME280;67692;51.074;-1.790;2023-03-11T09:08:50;100418.22;;;4.22;67.16
78407;BME280;67692;51.074;-1.790;2023-03-11T09:11:17;100427.97;;;4.14;66.96
78407;BME280;67692;51.074;-1.790;2023-03-11T09:13:46;100424.16;;;4.23;67.20
78407;BME280;67692;51.074;-1.790;2023-03-11T09:16:14;100418.88;;;4.26;67.44
78407;BME280;67692;51.074;-1.790;2023-03-11T09:18:41;100424.34;;;4.18;67.99
78407;BME280;67692;51.074;-1.790;2023-03-11T09:21:09;100425.06;;;4.03;68.48
78407;BME280;67692;51.074;-1.790;2023-03-11T09:23:36;100421.47;;;4.07;68.69
78407;BME280;67692;51.074;-1.790;2023-03-11T09:26:03;100424.16;;;4.04;69.41
78407;BME280;67692;51.074;-1.790;2023-03-11T09:28:29;100417.50;;;4.18;70.45
78407;BME280;67692;51.074;-1.790;2023-03-11T09:30:56;100415.00;;;4.17;69.36
78407;BME280;67692;51.074;-1.790;2023-03-11T09:33:23;100414.94;;;4.18;69.56
78407;BME280;67692;51.074;-1.790;2023-03-11T09:35:50;100420.06;;;4.18;69.77
78407;BME280;67692;51.074;-1.790;2023-03-11T09:38:18;100418.47;;;4.35;69.79
78407;BME280;67692;51.074;-1.790;2023-03-11T09:40:51;100422.59;;;4.37;70.30
78407;BME280;67692;51.074;-1.790;2023-03-11T09:43:28;100428.19;;;4.45;70.24
78407;BME280;67692;51.074;-1.790;2023-03-11T09:46:05;100422.03;;;4.50;70.86
78407;BME280;67692;51.074;-1.790;2023-03-11T09:48:46;100420.41;;;4.47;71.07
78407;BME280;67692;51.074;-1.790;2023-03-11T09:51:16;100413.03;;;4.58;71.27
78407;BME280;67692;51.074;-1.790;2023-03-11T09:53:52;100409.97;;;4.69;71.26
78407;BME280;67692;51.074;-1.790;2023-03-11T09:56:21;100411.31;;;4.76;71.08
78407;BME280;67692;51.074;-1.790;2023-03-11T09:58:49;100407.97;;;4.91;70.71
78407;BME280;67692;51.074;-1.790;2023-03-11T10:01:20;100409.25;;;5.00;71.11
78407;BME280;67692;51.074;-1.790;2023-03-11T10:03:49;100421.84;;;5.04;71.01
78407;BME280;67692;51.074;-1.790;2023-03-11T10:06:20;100413.88;;;4.93;70.95
78407;BME280;67692;51.074;-1.790;2023-03-11T10:08:54;100416.38;;;4.95;71.19
78407;BME280;67692;51.074;-1.790;2023-03-11T10:11:44;100414.56;;;4.97;71.23
78407;BME280;67692;51.074;-1.790;2023-03-11T10:14:23;100407.59;;;4.99;70.67
78407;BME280;67692;51.074;-1.790;2023-03-11T10:16:58;100408.13;;;5.05;71.15
78407;BME280;67692;51.074;-1.790;2023-03-11T10:19:33;100402.22;;;5.21;71.81
78407;BME280;67692;51.074;-1.790;2023-03-11T10:22:11;100400.34;;;5.40;71.33
78407;BME280;67692;51.074;-1.790;2023-03-11T10:24:51;100402.94;;;5.40;70.62
78407;BME280;67692;51.074;-1.790;2023-03-11T10:27:28;100405.84;;;5.50;71.63
78407;BME280;67692;51.074;-1.790;2023-03-11T10:29:59;100395.16;;;5.57;69.70
78407;BME280;67692;51.074;-1.790;2023-03-11T10:32:35;100394.69;;;5.66;69.90
78407;BME280;67692;51.074;-1.790;2023-03-11T10:35:09;100395.44;;;5.68;69.59
78407;BME280;67692;51.074;-1.790;2023-03-11T10:37:43;100391.19;;;5.67;68.95
78407;BME280;67692;51.074;-1.790;2023-03-11T10:40:18;100383.72;;;5.63;69.60
78407;BME280;67692;51.074;-1.790;2023-03-11T10:42:48;100380.00;;;5.68;69.45
78407;BME280;67692;51.074;-1.790;2023-03-11T10:45:17;100380.41;;;5.77;69.11
78407;BME280;67692;51.074;-1.790;2023-03-11T10:47:45;100372.31;;;5.68;68.78
78407;BME280;67692;51.074;-1.790;2023-03-11T10:50:14;100374.28;;;5.63;68.41
78407;BME280;67692;51.074;-1.790;2023-03-11T10:52:43;100369.56;;;5.72;68.53
78407;BME280;67692;51.074;-1.790;2023-03-11T10:55:16;100369.47;;;5.89;68.37
78407;BME280;67692;51.074;-1.790;2023-03-11T10:57:44;100373.41;;;5.96;67.79
78407;BME280;67692;51.074;-1.790;2023-03-11T11:00:27;100371.31;;;6.03;66.85
78407;BME280;67692;51.074;-1.790;2023-03-11T11:02:55;100372.47;;;6.13;65.22
78407;BME280;67692;51.074;-1.790;2023-03-11T11:05:28;100369.56;;;6.19;66.05
78407;BME280;67692;51.074;-1.790;2023-03-11T11:08:05;100362.09;;;6.14;64.44
78407;BME280;67692;51.074;-1.790;2023-03-11T11:10:35;100365.66;;;6.28;64.95
78407;BME280;67692;51.074;-1.790;2023-03-11T11:13:15;100373.59;;;6.39;66.10
78407;BME280;67692;51.074;-1.790;2023-03-11T11:15:51;100378.38;;;6.45;66.26
78407;BME280;67692;51.074;-1.790;2023-03-11T11:18:20;100377.69;;;6.57;67.52
78407;BME280;67692;51.074;-1.790;2023-03-11T11:20:54;100376.22;;;6.53;66.60
78407;BME280;67692;51.074;-1.790;2023-03-11T11:23:25;100387.16;;;6.56;63.00
78407;BME280;67692;51.074;-1.790;2023-03-11T11:25:59;100382.34;;;6.50;60.42
78407;BME280;67692;51.074;-1.790;2023-03-11T11:28:26;100381.97;;;6.42;59.00
78407;BME280;67692;51.074;-1.790;2023-03-11T11:30:55;100376.72;;;6.44;59.00
78407;BME280;67692;51.074;-1.790;2023-03-11T11:33:25;100375.91;;;6.43;60.63
78407;BME280;67692;51.074;-1.790;2023-03-11T11:35:54;100376.03;;;6.56;61.74
78407;BME280;67692;51.074;-1.790;2023-03-11T11:38:23;100381.19;;;6.56;64.36
78407;BME280;67692;51.074;-1.790;2023-03-11T11:40:50;100385.22;;;6.60;62.86
78407;BME280;67692;51.074;-1.790;2023-03-11T11:43:20;100385.31;;;6.59;62.34
78407;BME280;67692;51.074;-1.790;2023-03-11T11:45:54;100385.41;;;6.57;62.32
78407;BME280;67692;51.074;-1.790;2023-03-11T11:48:28;100390.44;;;6.59;61.43
78407;BME280;67692;51.074;-1.790;2023-03-11T11:50:59;100398.25;;;6.57;61.11
78407;BME280;67692;51.074;-1.790;2023-03-11T11:53:29;100390.78;;;6.68;62.85
78407;BME280;67692;51.074;-1.790;2023-03-11T11:55:58;100382.97;;;6.70;61.34
78407;BME280;67692;51.074;-1.790;2023-03-11T11:58:26;100383.59;;;6.73;62.42
78407;BME280;67692;51.074;-1.790;2023-03-11T12:01:02;100384.88;;;6.66;62.92
78407;BME280;67692;51.074;-1.790;2023-03-11T12:04:02;100384.91;;;6.80;62.98
78407;BME280;67692;51.074;-1.790;2023-03-11T12:06:34;100382.59;;;6.76;62.60
78407;BME280;67692;51.074;-1.790;2023-03-11T12:09:13;100384.84;;;6.96;63.31
78407;BME280;67692;51.074;-1.790;2023-03-11T12:11:46;100388.25;;;6.97;62.10
78407;BME280;67692;51.074;-1.790;2023-03-11T12:14:19;100380.53;;;6.97;63.08
78407;BME280;67692;51.074;-1.790;2023-03-11T12:16:51;100372.72;;;6.98;62.96
78407;BME280;67692;51.074;-1.790;2023-03-11T12:19:29;100376.28;;;6.96;63.04
78407;BME280;67692;51.074;-1.790;2023-03-11T12:22:21;100367.97;;;6.76;63.18
78407;BME280;67692;51.074;-1.790;2023-03-11T12:25:02;100369.28;;;6.83;63.55
78407;BME280;67692;51.074;-1.790;2023-03-11T12:27:36;100366.31;;;6.75;63.97
78407;BME280;67692;51.074;-1.790;2023-03-11T12:30:14;100350.53;;;6.81;64.55
78407;BME280;67692;51.074;-1.790;2023-03-11T12:32:46;100354.75;;;6.68;64.28
78407;BME280;67692;51.074;-1.790;2023-03-11T12:35:20;100357.28;;;6.54;63.95
78407;BME280;67692;51.074;-1.790;2023-03-11T12:37:55;100354.97;;;6.49;65.22
78407;BME280;67692;51.074;-1.790;2023-03-11T12:40:48;100362.25;;;6.57;64.69
78407;BME280;67692;51.074;-1.790;2023-03-11T12:43:26;100361.13;;;6.47;65.53
78407;BME280;67692;51.074;-1.790;2023-03-11T12:45:56;100359.16;;;6.36;64.78
78407;BME280;67692;51.074;-1.790;2023-03-11T12:48:35;100354.50;;;6.43;64.94
78407;BME280;67692;51.074;-1.790;2023-03-11T12:51:02;100353.41;;;6.47;65.29
78407;BME280;67692;51.074;-1.790;2023-03-11T12:53:44;100346.00;;;6.26;65.70
78407;BME280;67692;51.074;-1.790;2023-03-11T12:56:21;100338.28;;;6.26;65.92
78407;BME280;67692;51.074;-1.790;2023-03-11T12:59:10;100338.94;;;6.30;66.17